sensor_id;sensor_type;location;lat;lon;timestamp;temperature;humidity
8067;DHT22;4076;48.076;9.118;2022-10-16T00:01:07;12.10;99.90
8067;DHT22;4076;48.076;9.118;2022-10-16T00:03:33;12.10;99.90
8067;DHT22;4076;48.076;9.118;2022-10-16T00:06:00;12.20;99.90
8067;DHT22;4076;48.076;9.118;2022-10-16T00:08:26;12.10;99.90
8067;DHT22;4076;48.076;9.118;2022-10-16T00:10:52;12.10;99.90
8067;DHT22;4076;48.076;9.118;2022-10-16T00:13:17;12.10;99.90
8067;DHT22;4076;48.076;9.118;2022-10-16T00:15:45;12.10;99.90
8067;DHT22;4076;48.076;9.118;2022-10-16T00:18:11;12.10;99.90
8067;DHT22;4076;48.076;9.118;2022-10-16T00:20:37;12.10;99.90
8067;DHT22;4076;48.076;9.118;2022-10-16T00:23:03;12.10;99.90
8067;DHT22;4076;48.076;9.118;2022-10-16T00:25:30;12.10;99.90
8067;DHT22;4076;48.076;9.118;2022-10-16T00:27:58;12.10;99.90
8067;DHT22;4076;48.076;9.118;2022-10-16T00:30:24;12.10;99.90
8067;DHT22;4076;48.076;9.118;2022-10-16T00:32:52;12.10;99.90
8067;DHT22;4076;48.076;9.118;2022-10-16T00:35:17;12.10;99.90
8067;DHT22;4076;48.076;9.118;2022-10-16T00:37:43;12.10;99.90
8067;DHT22;4076;48.076;9.118;2022-10-16T00:40:09;12.10;99.90
8067;DHT22;4076;48.076;9.118;2022-10-16T00:42:34;12.10;99.90
8067;DHT22;4076;48.076;9.118;2022-10-16T00:45:00;12.10;99.90
8067;DHT22;4076;48.076;9.118;2022-10-16T00:47:42;12.10;99.90
8067;DHT22;4076;48.076;9.118;2022-10-16T00:50:31;12.20;99.90
8067;DHT22;4076;48.076;9.118;2022-10-16T00:52:58;12.20;99.90
8067;DHT22;4076;48.076;9.118;2022-10-16T00:55:24;12.20;99.90
8067;DHT22;4076;48.076;9.118;2022-10-16T00:57:51;12.20;99.90
8067;DHT22;4076;48.076;9.118;2022-10-16T01:00:21;12.30;99.90
8067;DHT22;4076;48.076;9.118;2022-10-16T01:02:58;12.30;99.90
8067;DHT22;4076;48.076;9.118;2022-10-16T01:05:35;12.30;99.90
8067;DHT22;4076;48.076;9.118;2022-10-16T01:08:39;12.30;99.90
8067;DHT22;4076;48.076;9.118;2022-10-16T01:13:54;12.30;99.90
8067;DHT22;4076;48.076;9.118;2022-10-16T01:19:12;12.20;99.90
8067;DHT22;4076;48.076;9.118;2022-10-16T01:21:43;12.20;99.90
8067;DHT22;4076;48.076;9.118;2022-10-16T01:24:39;12.20;99.90
8067;DHT22;4076;48.076;9.118;2022-10-16T01:27:20;12.20;99.90
8067;DHT22;4076;48.076;9.118;2022-10-16T01:29:56;12.20;99.90
8067;DHT22;4076;48.076;9.118;2022-10-16T01:32:33;12.20;99.90
8067;DHT22;4076;48.076;9.118;2022-10-16T01:35:05;12.30;99.90
8067;DHT22;4076;48.076;9.118;2022-10-16T01:37:41;12.30;99.90
8067;DHT22;4076;48.076;9.118;2022-10-16T01:40:12;12.30;99.90
8067;DHT22;4076;48.076;9.118;2022-10-16T01:43:04;12.30;99.90
8067;DHT22;4076;48.076;9.118;2022-10-16T01:45:31;12.30;99.90
8067;DHT22;4076;48.076;9.118;2022-10-16T01:47:59;12.30;99.90
8067;DHT22;4076;48.076;9.118;2022-10-16T01:50:26;12.30;99.90
8067;DHT22;4076;48.076;9.118;2022-10-16T01:52:53;12.30;99.90
8067;DHT22;4076;48.076;9.118;2022-10-16T01:55:24;12.20;99.90
8067;DHT22;4076;48.076;9.118;2022-10-16T01:57:51;12.20;99.90
8067;DHT22;4076;48.076;9.118;2022-10-16T02:00:24;12.20;99.90
8067;DHT22;4076;48.076;9.118;2022-10-16T02:02:53;12.20;99.90
8067;DHT22;4076;48.076;9.118;2022-10-16T02:05:31;12.20;99.90
8067;DHT22;4076;48.076;9.118;2022-10-16T02:07:57;12.10;99.90
8067;DHT22;4076;48.076;9.118;2022-10-16T02:10:24;12.10;99.90
8067;DHT22;4076;48.076;9.118;2022-10-16T02:12:57;12.10;99.90
8067;DHT22;4076;48.076;9.118;2022-10-16T02:15:24;12.10;99.90
8067;DHT22;4076;48.076;9.118;2022-10-16T02:17:49;12.10;99.90
8067;DHT22;4076;48.076;9.118;2022-10-16T02:20:15;12.10;99.90
8067;DHT22;4076;48.076;9.118;2022-10-16T02:22:45;12.20;99.90
8067;DHT22;4076;48.076;9.118;2022-10-16T02:25:19;12.20;99.90
8067;DHT22;4076;48.076;9.118;2022-10-16T02:28:19;12.10;99.90
8067;DHT22;4076;48.076;9.118;2022-10-16T02:30:56;12.10;99.90
8067;DHT22;4076;48.076;9.118;2022-10-16T02:33:25;12.10;99.90
8067;DHT22;4076;48.076;9.118;2022-10-16T02:35:52;12.10;99.90
8067;DHT22;4076;48.076;9.118;2022-10-16T02:38:20;12.00;99.90
8067;DHT22;4076;48.076;9.118;2022-10-16T02:40:46;12.00;99.90
8067;DHT22;4076;48.076;9.118;2022-10-16T02:43:12;12.10;99.90
8067;DHT22;4076;48.076;9.118;2022-10-16T02:45:38;12.10;99.90
8067;DHT22;4076;48.076;9.118;2022-10-16T02:48:04;12.00;99.90
8067;DHT22;4076;48.076;9.118;2022-10-16T02:50:29;12.00;99.90
8067;DHT22;4076;48.076;9.118;2022-10-16T02:52:55;11.90;99.90
8067;DHT22;4076;48.076;9.118;2022-10-16T02:55:20;11.90;99.90
8067;DHT22;4076;48.076;9.118;2022-10-16T02:57:46;11.80;99.90
8067;DHT22;4076;48.076;9.118;2022-10-16T03:00:14;11.80;99.90
8067;DHT22;4076;48.076;9.118;2022-10-16T03:02:43;11.80;99.90
8067;DHT22;4076;48.076;9.118;2022-10-16T03:05:09;11.90;99.90
8067;DHT22;4076;48.076;9.118;2022-10-16T03:07:35;11.80;99.90
8067;DHT22;4076;48.076;9.118;2022-10-16T03:10:01;11.80;99.90
8067;DHT22;4076;48.076;9.118;2022-10-16T03:12:30;11.80;99.90
8067;DHT22;4076;48.076;9.118;2022-10-16T03:14:57;11.80;99.90
8067;DHT22;4076;48.076;9.118;2022-10-16T03:17:23;11.80;99.90
8067;DHT22;4076;48.076;9.118;2022-10-16T03:19:49;11.80;99.90
8067;DHT22;4076;48.076;9.118;2022-10-16T03:22:14;11.70;99.90
8067;DHT22;4076;48.076;9.118;2022-10-16T03:24:40;11.70;99.90
8067;DHT22;4076;48.076;9.118;2022-10-16T03:27:06;11.80;99.90
8067;DHT22;4076;48.076;9.118;2022-10-16T03:29:32;11.70;99.90
8067;DHT22;4076;48.076;9.118;2022-10-16T03:31:58;11.70;99.90
8067;DHT22;4076;48.076;9.118;2022-10-16T03:34:24;11.70;99.90
8067;DHT22;4076;48.076;9.118;2022-10-16T03:36:50;11.70;99.90
8067;DHT22;4076;48.076;9.118;2022-10-16T03:39:16;11.70;99.90
8067;DHT22;4076;48.076;9.118;2022-10-16T03:41:42;11.70;99.90
8067;DHT22;4076;48.076;9.118;2022-10-16T03:44:07;11.70;99.90
8067;DHT22;4076;48.076;9.118;2022-10-16T03:46:33;11.60;99.90
8067;DHT22;4076;48.076;9.118;2022-10-16T03:48:58;11.60;99.90
8067;DHT22;4076;48.076;9.118;2022-10-16T03:51:24;11.60;99.90
8067;DHT22;4076;48.076;9.118;2022-10-16T03:53:49;11.50;99.90
8067;DHT22;4076;48.076;9.118;2022-10-16T03:56:15;11.50;99.90
8067;DHT22;4076;48.076;9.118;2022-10-16T03:58:41;11.50;99.90
8067;DHT22;4076;48.076;9.118;2022-10-16T04:01:06;11.40;99.90
8067;DHT22;4076;48.076;9.118;2022-10-16T04:03:32;11.40;99.90
8067;DHT22;4076;48.076;9.118;2022-10-16T04:05:57;11.30;99.90
8067;DHT22;4076;48.076;9.118;2022-10-16T04:08:23;11.30;99.90
8067;DHT22;4076;48.076;9.118;2022-10-16T04:10:49;11.30;99.90
8067;DHT22;4076;48.076;9.118;2022-10-16T04:13:14;11.30;99.90
8067;DHT22;4076;48.076;9.118;2022-10-16T04:15:40;11.40;99.90
8067;DHT22;4076;48.076;9.118;2022-10-16T04:18:06;11.40;99.90
8067;DHT22;4076;48.076;9.118;2022-10-16T04:20:32;11.40;99.90
8067;DHT22;4076;48.076;9.118;2022-10-16T04:22:58;11.30;99.90
8067;DHT22;4076;48.076;9.118;2022-10-16T04:25:23;11.30;99.90
8067;DHT22;4076;48.076;9.118;2022-10-16T04:27:49;11.30;99.90
8067;DHT22;4076;48.076;9.118;2022-10-16T04:30:14;11.30;99.90
8067;DHT22;4076;48.076;9.118;2022-10-16T04:32:40;11.30;99.90
8067;DHT22;4076;48.076;9.118;2022-10-16T04:35:06;11.20;99.90
8067;DHT22;4076;48.076;9.118;2022-10-16T04:37:32;11.20;99.90
8067;DHT22;4076;48.076;9.118;2022-10-16T04:39:58;11.30;99.90
8067;DHT22;4076;48.076;9.118;2022-10-16T04:42:23;11.30;99.90
8067;DHT22;4076;48.076;9.118;2022-10-16T04:44:49;11.20;99.90
8067;DHT22;4076;48.076;9.118;2022-10-16T04:47:14;11.30;99.90
8067;DHT22;4076;48.076;9.118;2022-10-16T04:49:40;11.30;99.90
8067;DHT22;4076;48.076;9.118;2022-10-16T04:52:05;11.30;99.90
8067;DHT22;4076;48.076;9.118;2022-10-16T04:54:31;11.40;99.90
8067;DHT22;4076;48.076;9.118;2022-10-16T04:56:56;11.40;99.90
8067;DHT22;4076;48.076;9.118;2022-10-16T04:59:22;11.40;99.90
8067;DHT22;4076;48.076;9.118;2022-10-16T05:01:48;11.40;99.90
8067;DHT22;4076;48.076;9.118;2022-10-16T05:04:14;11.40;99.90
8067;DHT22;4076;48.076;9.118;2022-10-16T05:06:41;11.40;99.90
8067;DHT22;4076;48.076;9.118;2022-10-16T05:09:07;11.40;99.90
8067;DHT22;4076;48.076;9.118;2022-10-16T05:11:33;11.40;99.90
8067;DHT22;4076;48.076;9.118;2022-10-16T05:13:59;11.40;99.90
8067;DHT22;4076;48.076;9.118;2022-10-16T05:16:25;11.40;99.90
8067;DHT22;4076;48.076;9.118;2022-10-16T05:18:53;11.40;99.90
8067;DHT22;4076;48.076;9.118;2022-10-16T05:21:20;11.40;99.90
8067;DHT22;4076;48.076;9.118;2022-10-16T05:23:45;11.40;99.90
8067;DHT22;4076;48.076;9.118;2022-10-16T05:26:11;11.40;99.90
8067;DHT22;4076;48.076;9.118;2022-10-16T05:28:36;11.40;99.90
8067;DHT22;4076;48.076;9.118;2022-10-16T05:31:09;11.40;99.90
8067;DHT22;4076;48.076;9.118;2022-10-16T05:33:35;11.40;99.90
8067;DHT22;4076;48.076;9.118;2022-10-16T05:36:06;11.50;99.90
8067;DHT22;4076;48.076;9.118;2022-10-16T05:38:33;11.50;99.90
8067;DHT22;4076;48.076;9.118;2022-10-16T05:40:58;11.40;99.90
8067;DHT22;4076;48.076;9.118;2022-10-16T05:43:24;11.40;99.90
8067;DHT22;4076;48.076;9.118;2022-10-16T05:46:04;11.40;99.90
8067;DHT22;4076;48.076;9.118;2022-10-16T05:48:31;11.40;99.90
8067;DHT22;4076;48.076;9.118;2022-10-16T05:51:09;11.40;99.90
8067;DHT22;4076;48.076;9.118;2022-10-16T05:53:36;11.40;99.90
8067;DHT22;4076;48.076;9.118;2022-10-16T05:56:02;11.40;99.90
8067;DHT22;4076;48.076;9.118;2022-10-16T05:58:30;11.40;99.90
8067;DHT22;4076;48.076;9.118;2022-10-16T06:00:59;11.40;99.90
8067;DHT22;4076;48.076;9.118;2022-10-16T06:03:24;11.50;99.90
8067;DHT22;4076;48.076;9.118;2022-10-16T06:05:50;11.50;99.90
8067;DHT22;4076;48.076;9.118;2022-10-16T06:08:16;11.50;99.90
8067;DHT22;4076;48.076;9.118;2022-10-16T06:10:43;11.50;99.90
8067;DHT22;4076;48.076;9.118;2022-10-16T06:13:09;11.60;99.90
8067;DHT22;4076;48.076;9.118;2022-10-16T06:15:35;11.60;99.90
8067;DHT22;4076;48.076;9.118;2022-10-16T06:18:00;11.70;99.90
8067;DHT22;4076;48.076;9.118;2022-10-16T06:20:26;11.70;99.90
8067;DHT22;4076;48.076;9.118;2022-10-16T06:22:52;11.70;99.90
8067;DHT22;4076;48.076;9.118;2022-10-16T06:25:17;11.80;99.90
8067;DHT22;4076;48.076;9.118;2022-10-16T06:27:43;11.80;99.90
8067;DHT22;4076;48.076;9.118;2022-10-16T06:30:09;11.90;99.90
8067;DHT22;4076;48.076;9.118;2022-10-16T06:32:34;12.00;99.90
8067;DHT22;4076;48.076;9.118;2022-10-16T06:35:00;12.10;99.90
8067;DHT22;4076;48.076;9.118;2022-10-16T06:37:27;12.20;99.90
8067;DHT22;4076;48.076;9.118;2022-10-16T06:39:52;12.40;99.90
8067;DHT22;4076;48.076;9.118;2022-10-16T06:42:18;12.50;99.90
8067;DHT22;4076;48.076;9.118;2022-10-16T06:44:44;12.70;99.90
8067;DHT22;4076;48.076;9.118;2022-10-16T06:47:10;12.80;99.90
8067;DHT22;4076;48.076;9.118;2022-10-16T06:49:36;12.90;99.90
8067;DHT22;4076;48.076;9.118;2022-10-16T06:52:01;13.00;99.90
8067;DHT22;4076;48.076;9.118;2022-10-16T06:54:27;13.10;99.90
8067;DHT22;4076;48.076;9.118;2022-10-16T06:56:53;13.20;99.90
8067;DHT22;4076;48.076;9.118;2022-10-16T06:59:20;13.50;99.90
8067;DHT22;4076;48.076;9.118;2022-10-16T07:01:46;14.00;99.90
8067;DHT22;4076;48.076;9.118;2022-10-16T07:04:12;15.40;99.90
8067;DHT22;4076;48.076;9.118;2022-10-16T07:06:38;17.20;99.90
8067;DHT22;4076;48.076;9.118;2022-10-16T07:09:06;17.90;99.90
8067;DHT22;4076;48.076;9.118;2022-10-16T07:11:31;17.80;99.90
8067;DHT22;4076;48.076;9.118;2022-10-16T07:13:57;17.30;99.90
8067;DHT22;4076;48.076;9.118;2022-10-16T07:16:27;16.70;99.90
8067;DHT22;4076;48.076;9.118;2022-10-16T07:18:55;16.30;99.90
8067;DHT22;4076;48.076;9.118;2022-10-16T07:21:23;15.90;99.90
8067;DHT22;4076;48.076;9.118;2022-10-16T07:23:55;15.50;99.90
8067;DHT22;4076;48.076;9.118;2022-10-16T07:26:23;15.10;99.90
8067;DHT22;4076;48.076;9.118;2022-10-16T07:28:48;14.80;99.90
8067;DHT22;4076;48.076;9.118;2022-10-16T07:31:16;14.50;99.90
8067;DHT22;4076;48.076;9.118;2022-10-16T07:33:42;14.40;99.90
8067;DHT22;4076;48.076;9.118;2022-10-16T07:36:10;14.30;99.90
8067;DHT22;4076;48.076;9.118;2022-10-16T07:38:36;14.10;99.90
8067;DHT22;4076;48.076;9.118;2022-10-16T07:41:04;14.00;99.90
8067;DHT22;4076;48.076;9.118;2022-10-16T07:43:30;13.90;99.90
8067;DHT22;4076;48.076;9.118;2022-10-16T07:45:56;13.80;99.90
8067;DHT22;4076;48.076;9.118;2022-10-16T07:48:23;13.70;99.90
8067;DHT22;4076;48.076;9.118;2022-10-16T07:50:49;13.70;99.90
8067;DHT22;4076;48.076;9.118;2022-10-16T07:53:15;13.70;99.90
8067;DHT22;4076;48.076;9.118;2022-10-16T07:55:41;13.70;99.90
8067;DHT22;4076;48.076;9.118;2022-10-16T07:58:07;13.70;99.90
8067;DHT22;4076;48.076;9.118;2022-10-16T08:00:33;13.70;99.90
8067;DHT22;4076;48.076;9.118;2022-10-16T08:02:59;13.80;99.90
8067;DHT22;4076;48.076;9.118;2022-10-16T08:05:28;13.80;99.90
8067;DHT22;4076;48.076;9.118;2022-10-16T08:07:54;13.80;99.90
8067;DHT22;4076;48.076;9.118;2022-10-16T08:10:22;13.80;99.90
8067;DHT22;4076;48.076;9.118;2022-10-16T08:12:47;13.80;99.90
8067;DHT22;4076;48.076;9.118;2022-10-16T08:15:13;13.90;99.90
8067;DHT22;4076;48.076;9.118;2022-10-16T08:17:38;13.90;99.90
8067;DHT22;4076;48.076;9.118;2022-10-16T08:20:05;14.00;99.90
8067;DHT22;4076;48.076;9.118;2022-10-16T08:22:30;14.10;99.90
8067;DHT22;4076;48.076;9.118;2022-10-16T08:24:56;14.10;99.90
8067;DHT22;4076;48.076;9.118;2022-10-16T08:27:22;14.20;99.90
8067;DHT22;4076;48.076;9.118;2022-10-16T08:29:50;14.30;99.90
8067;DHT22;4076;48.076;9.118;2022-10-16T08:32:16;14.40;99.90
8067;DHT22;4076;48.076;9.118;2022-10-16T08:34:41;14.40;99.90
8067;DHT22;4076;48.076;9.118;2022-10-16T08:37:07;14.50;99.90
8067;DHT22;4076;48.076;9.118;2022-10-16T08:39:36;14.60;99.90
8067;DHT22;4076;48.076;9.118;2022-10-16T08:45:01;14.60;99.90
8067;DHT22;4076;48.076;9.118;2022-10-16T08:50:30;14.80;99.90
8067;DHT22;4076;48.076;9.118;2022-10-16T08:52:57;14.90;99.90
8067;DHT22;4076;48.076;9.118;2022-10-16T08:55:40;15.10;99.90
8067;DHT22;4076;48.076;9.118;2022-10-16T08:58:21;15.20;99.90
8067;DHT22;4076;48.076;9.118;2022-10-16T09:00:50;15.50;99.90
8067;DHT22;4076;48.076;9.118;2022-10-16T09:14:03;17.00;99.90
8067;DHT22;4076;48.076;9.118;2022-10-16T09:16:41;17.00;99.90
8067;DHT22;4076;48.076;9.118;2022-10-16T09:21:45;16.80;99.90
8067;DHT22;4076;48.076;9.118;2022-10-16T09:24:18;16.70;99.90
8067;DHT22;4076;48.076;9.118;2022-10-16T09:26:44;16.60;99.90
8067;DHT22;4076;48.076;9.118;2022-10-16T09:29:15;16.50;99.90
8067;DHT22;4076;48.076;9.118;2022-10-16T09:31:42;16.50;99.90
8067;DHT22;4076;48.076;9.118;2022-10-16T09:34:30;16.50;99.90
8067;DHT22;4076;48.076;9.118;2022-10-16T09:36:57;16.60;99.90
8067;DHT22;4076;48.076;9.118;2022-10-16T09:39:23;16.70;99.90
8067;DHT22;4076;48.076;9.118;2022-10-16T09:41:49;16.90;99.90
8067;DHT22;4076;48.076;9.118;2022-10-16T09:47:06;17.30;99.90
8067;DHT22;4076;48.076;9.118;2022-10-16T09:49:37;17.50;99.90
8067;DHT22;4076;48.076;9.118;2022-10-16T09:52:12;17.80;99.90
8067;DHT22;4076;48.076;9.118;2022-10-16T09:54:37;18.10;99.90
8067;DHT22;4076;48.076;9.118;2022-10-16T09:57:13;18.40;99.90
8067;DHT22;4076;48.076;9.118;2022-10-16T09:59:57;18.70;99.90
8067;DHT22;4076;48.076;9.118;2022-10-16T10:04:54;19.20;99.90
8067;DHT22;4076;48.076;9.118;2022-10-16T10:07:42;19.20;99.90
8067;DHT22;4076;48.076;9.118;2022-10-16T10:10:29;19.20;99.90
8067;DHT22;4076;48.076;9.118;2022-10-16T10:12:55;19.20;99.90
8067;DHT22;4076;48.076;9.118;2022-10-16T10:15:22;19.20;99.90
8067;DHT22;4076;48.076;9.118;2022-10-16T10:17:51;19.20;99.90
8067;DHT22;4076;48.076;9.118;2022-10-16T10:20:31;19.10;99.90
8067;DHT22;4076;48.076;9.118;2022-10-16T10:23:01;18.90;99.90
8067;DHT22;4076;48.076;9.118;2022-10-16T10:31:34;20.30;99.90
8067;DHT22;4076;48.076;9.118;2022-10-16T10:36:37;21.10;99.90
8067;DHT22;4076;48.076;9.118;2022-10-16T10:39:17;21.40;99.90
8067;DHT22;4076;48.076;9.118;2022-10-16T10:42:53;21.90;99.90
8067;DHT22;4076;48.076;9.118;2022-10-16T10:47:36;22.80;99.90
8067;DHT22;4076;48.076;9.118;2022-10-16T10:52:52;22.60;99.90
8067;DHT22;4076;48.076;9.118;2022-10-16T10:58:04;22.80;99.90
8067;DHT22;4076;48.076;9.118;2022-10-16T11:00:47;23.20;99.90
8067;DHT22;4076;48.076;9.118;2022-10-16T11:11:52;22.40;96.90
8067;DHT22;4076;48.076;9.118;2022-10-16T11:14:35;22.50;97.40
8067;DHT22;4076;48.076;9.118;2022-10-16T11:17:12;23.20;96.00
8067;DHT22;4076;48.076;9.118;2022-10-16T11:19:48;23.40;93.90
8067;DHT22;4076;48.076;9.118;2022-10-16T11:22:29;23.50;94.00
8067;DHT22;4076;48.076;9.118;2022-10-16T11:25:16;23.30;92.70
8067;DHT22;4076;48.076;9.118;2022-10-16T11:30:27;23.50;92.10
8067;DHT22;4076;48.076;9.118;2022-10-16T11:35:53;25.00;83.80
8067;DHT22;4076;48.076;9.118;2022-10-16T11:38:30;25.30;78.00
8067;DHT22;4076;48.076;9.118;2022-10-16T11:41:15;25.00;76.20
8067;DHT22;4076;48.076;9.118;2022-10-16T11:43:48;24.80;77.10
8067;DHT22;4076;48.076;9.118;2022-10-16T11:46:21;24.50;76.50
8067;DHT22;4076;48.076;9.118;2022-10-16T11:49:02;24.30;76.50
8067;DHT22;4076;48.076;9.118;2022-10-16T11:56:59;23.50;75.80
8067;DHT22;4076;48.076;9.118;2022-10-16T12:02:10;23.00;76.20
8067;DHT22;4076;48.076;9.118;2022-10-16T12:04:54;22.80;75.80
8067;DHT22;4076;48.076;9.118;2022-10-16T12:07:27;22.70;75.20
8067;DHT22;4076;48.076;9.118;2022-10-16T12:09:57;22.60;76.10
8067;DHT22;4076;48.076;9.118;2022-10-16T12:12:26;22.60;76.40
8067;DHT22;4076;48.076;9.118;2022-10-16T12:15:26;22.80;75.20
8067;DHT22;4076;48.076;9.118;2022-10-16T12:17:50;22.90;74.50
8067;DHT22;4076;48.076;9.118;2022-10-16T12:20:28;23.00;76.20
8067;DHT22;4076;48.076;9.118;2022-10-16T12:22:56;23.20;73.00
8067;DHT22;4076;48.076;9.118;2022-10-16T12:25:31;23.10;73.20
8067;DHT22;4076;48.076;9.118;2022-10-16T12:27:59;23.10;72.70
8067;DHT22;4076;48.076;9.118;2022-10-16T12:30:27;23.00;72.70
8067;DHT22;4076;48.076;9.118;2022-10-16T12:33:02;22.90;70.20
8067;DHT22;4076;48.076;9.118;2022-10-16T12:35:35;22.80;70.80
8067;DHT22;4076;48.076;9.118;2022-10-16T12:38:19;22.80;72.00
8067;DHT22;4076;48.076;9.118;2022-10-16T12:41:03;22.80;74.20
8067;DHT22;4076;48.076;9.118;2022-10-16T12:46:02;22.80;70.60
8067;DHT22;4076;48.076;9.118;2022-10-16T12:48:29;22.70;69.70
8067;DHT22;4076;48.076;9.118;2022-10-16T12:50:55;22.60;70.90
8067;DHT22;4076;48.076;9.118;2022-10-16T12:53:23;22.60;72.20
8067;DHT22;4076;48.076;9.118;2022-10-16T12:55:58;22.70;70.60
8067;DHT22;4076;48.076;9.118;2022-10-16T13:01:41;22.80;69.70
8067;DHT22;4076;48.076;9.118;2022-10-16T13:04:20;22.90;69.00
8067;DHT22;4076;48.076;9.118;2022-10-16T13:09:47;22.70;69.40
8067;DHT22;4076;48.076;9.118;2022-10-16T13:12:37;22.70;70.90
8067;DHT22;4076;48.076;9.118;2022-10-16T13:15:28;22.50;70.00
8067;DHT22;4076;48.076;9.118;2022-10-16T13:23:33;22.40;71.90
8067;DHT22;4076;48.076;9.118;2022-10-16T13:26:20;22.50;69.70
8067;DHT22;4076;48.076;9.118;2022-10-16T13:28:48;22.60;68.20
8067;DHT22;4076;48.076;9.118;2022-10-16T13:31:22;22.70;70.40
8067;DHT22;4076;48.076;9.118;2022-10-16T13:33:57;22.90;69.80
8067;DHT22;4076;48.076;9.118;2022-10-16T13:36:35;23.10;67.90
8067;DHT22;4076;48.076;9.118;2022-10-16T13:41:39;23.00;65.90
8067;DHT22;4076;48.076;9.118;2022-10-16T13:44:08;22.90;65.50
8067;DHT22;4076;48.076;9.118;2022-10-16T13:46:37;22.90;66.60
8067;DHT22;4076;48.076;9.118;2022-10-16T13:49:20;22.80;66.10
8067;DHT22;4076;48.076;9.118;2022-10-16T13:51:57;22.70;67.50
8067;DHT22;4076;48.076;9.118;2022-10-16T13:54:23;22.50;67.80
8067;DHT22;4076;48.076;9.118;2022-10-16T13:56:49;22.40;69.40
8067;DHT22;4076;48.076;9.118;2022-10-16T13:59:35;22.40;69.00
8067;DHT22;4076;48.076;9.118;2022-10-16T14:02:10;22.40;69.60
8067;DHT22;4076;48.076;9.118;2022-10-16T14:04:40;22.40;69.90
8067;DHT22;4076;48.076;9.118;2022-10-16T14:07:13;22.40;69.60
8067;DHT22;4076;48.076;9.118;2022-10-16T14:09:40;22.40;69.60
8067;DHT22;4076;48.076;9.118;2022-10-16T14:12:11;22.50;69.40
8067;DHT22;4076;48.076;9.118;2022-10-16T14:14:45;22.50;69.00
8067;DHT22;4076;48.076;9.118;2022-10-16T14:17:32;22.50;70.70
8067;DHT22;4076;48.076;9.118;2022-10-16T14:20:04;22.50;72.30
8067;DHT22;4076;48.076;9.118;2022-10-16T14:22:39;22.40;69.50
8067;DHT22;4076;48.076;9.118;2022-10-16T14:30:35;22.10;72.50
8067;DHT22;4076;48.076;9.118;2022-10-16T14:33:22;21.90;74.60
8067;DHT22;4076;48.076;9.118;2022-10-16T14:38:25;21.80;76.00
8067;DHT22;4076;48.076;9.118;2022-10-16T14:40:51;21.70;78.20
8067;DHT22;4076;48.076;9.118;2022-10-16T14:43:33;21.70;79.80
8067;DHT22;4076;48.076;9.118;2022-10-16T14:45:59;21.60;81.50
8067;DHT22;4076;48.076;9.118;2022-10-16T14:48:26;21.50;84.60
8067;DHT22;4076;48.076;9.118;2022-10-16T14:50:52;21.40;88.20
8067;DHT22;4076;48.076;9.118;2022-10-16T14:53:18;21.20;89.50
8067;DHT22;4076;48.076;9.118;2022-10-16T14:55:44;21.10;91.40
8067;DHT22;4076;48.076;9.118;2022-10-16T14:58:21;21.00;93.10
8067;DHT22;4076;48.076;9.118;2022-10-16T15:00:48;20.80;92.90
8067;DHT22;4076;48.076;9.118;2022-10-16T15:03:14;20.70;94.50
8067;DHT22;4076;48.076;9.118;2022-10-16T15:05:40;20.60;95.70
8067;DHT22;4076;48.076;9.118;2022-10-16T15:08:05;20.40;96.30
8067;DHT22;4076;48.076;9.118;2022-10-16T15:10:35;20.40;98.00
8067;DHT22;4076;48.076;9.118;2022-10-16T15:13:03;20.30;99.90
8067;DHT22;4076;48.076;9.118;2022-10-16T15:15:38;20.10;99.90
8067;DHT22;4076;48.076;9.118;2022-10-16T15:18:04;20.00;99.90
8067;DHT22;4076;48.076;9.118;2022-10-16T15:20:33;19.90;99.90
8067;DHT22;4076;48.076;9.118;2022-10-16T15:23:01;19.80;99.90
8067;DHT22;4076;48.076;9.118;2022-10-16T15:26:03;19.70;99.90
8067;DHT22;4076;48.076;9.118;2022-10-16T15:28:23;19.50;99.90
8067;DHT22;4076;48.076;9.118;2022-10-16T15:30:51;19.40;99.90
8067;DHT22;4076;48.076;9.118;2022-10-16T15:33:22;19.30;99.90
8067;DHT22;4076;48.076;9.118;2022-10-16T15:35:50;19.20;99.90
8067;DHT22;4076;48.076;9.118;2022-10-16T15:38:17;19.10;99.90
8067;DHT22;4076;48.076;9.118;2022-10-16T15:40:44;19.00;99.90
8067;DHT22;4076;48.076;9.118;2022-10-16T15:43:09;18.80;99.90
8067;DHT22;4076;48.076;9.118;2022-10-16T15:45:35;18.70;99.90
8067;DHT22;4076;48.076;9.118;2022-10-16T15:48:01;18.70;99.90
8067;DHT22;4076;48.076;9.118;2022-10-16T15:50:27;18.50;99.90
8067;DHT22;4076;48.076;9.118;2022-10-16T15:52:52;18.40;99.90
8067;DHT22;4076;48.076;9.118;2022-10-16T15:55:18;18.30;99.90
8067;DHT22;4076;48.076;9.118;2022-10-16T15:57:45;18.30;99.90
8067;DHT22;4076;48.076;9.118;2022-10-16T16:00:16;18.20;99.90
8067;DHT22;4076;48.076;9.118;2022-10-16T16:02:43;18.10;99.90
8067;DHT22;4076;48.076;9.118;2022-10-16T16:05:10;18.00;99.90
8067;DHT22;4076;48.076;9.118;2022-10-16T16:07:36;17.90;99.90
8067;DHT22;4076;48.076;9.118;2022-10-16T16:10:05;17.70;99.90
8067;DHT22;4076;48.076;9.118;2022-10-16T16:12:31;17.60;99.90
8067;DHT22;4076;48.076;9.118;2022-10-16T16:14:57;17.40;99.90
8067;DHT22;4076;48.076;9.118;2022-10-16T16:17:22;17.30;99.90
8067;DHT22;4076;48.076;9.118;2022-10-16T16:19:49;17.10;99.90
8067;DHT22;4076;48.076;9.118;2022-10-16T16:22:15;17.00;99.90
8067;DHT22;4076;48.076;9.118;2022-10-16T16:24:41;16.80;99.90
8067;DHT22;4076;48.076;9.118;2022-10-16T16:27:07;16.80;99.90
8067;DHT22;4076;48.076;9.118;2022-10-16T16:29:32;16.70;99.90
8067;DHT22;4076;48.076;9.118;2022-10-16T16:31:59;16.50;99.90
8067;DHT22;4076;48.076;9.118;2022-10-16T16:34:26;16.40;99.90
8067;DHT22;4076;48.076;9.118;2022-10-16T16:36:53;16.30;99.90
8067;DHT22;4076;48.076;9.118;2022-10-16T16:39:19;16.20;99.90
8067;DHT22;4076;48.076;9.118;2022-10-16T16:41:44;16.10;99.90
8067;DHT22;4076;48.076;9.118;2022-10-16T16:44:11;16.00;99.90
8067;DHT22;4076;48.076;9.118;2022-10-16T16:46:37;15.80;99.90
8067;DHT22;4076;48.076;9.118;2022-10-16T16:49:05;15.70;99.90
8067;DHT22;4076;48.076;9.118;2022-10-16T16:51:32;15.60;99.90
8067;DHT22;4076;48.076;9.118;2022-10-16T16:53:58;15.50;99.90
8067;DHT22;4076;48.076;9.118;2022-10-16T16:56:24;15.40;99.90
8067;DHT22;4076;48.076;9.118;2022-10-16T16:58:52;15.30;99.90
8067;DHT22;4076;48.076;9.118;2022-10-16T17:01:18;15.20;99.90
8067;DHT22;4076;48.076;9.118;2022-10-16T17:03:44;15.10;99.90
8067;DHT22;4076;48.076;9.118;2022-10-16T17:06:12;15.10;99.90
8067;DHT22;4076;48.076;9.118;2022-10-16T17:08:38;15.10;99.90
8067;DHT22;4076;48.076;9.118;2022-10-16T17:11:04;15.00;99.90
8067;DHT22;4076;48.076;9.118;2022-10-16T17:13:33;14.90;99.90
8067;DHT22;4076;48.076;9.118;2022-10-16T17:16:06;14.80;99.90
8067;DHT22;4076;48.076;9.118;2022-10-16T17:18:32;14.80;99.90
8067;DHT22;4076;48.076;9.118;2022-10-16T17:21:03;14.70;99.90
8067;DHT22;4076;48.076;9.118;2022-10-16T17:23:30;14.60;99.90
8067;DHT22;4076;48.076;9.118;2022-10-16T17:25:56;14.50;99.90
8067;DHT22;4076;48.076;9.118;2022-10-16T17:28:21;14.50;99.90
8067;DHT22;4076;48.076;9.118;2022-10-16T17:30:47;14.40;99.90
8067;DHT22;4076;48.076;9.118;2022-10-16T17:33:13;14.30;99.90
8067;DHT22;4076;48.076;9.118;2022-10-16T17:35:41;14.20;99.90
8067;DHT22;4076;48.076;9.118;2022-10-16T17:38:08;14.10;99.90
8067;DHT22;4076;48.076;9.118;2022-10-16T17:40:34;14.00;99.90
8067;DHT22;4076;48.076;9.118;2022-10-16T17:43:00;13.90;99.90
8067;DHT22;4076;48.076;9.118;2022-10-16T17:45:27;13.80;99.90
8067;DHT22;4076;48.076;9.118;2022-10-16T17:47:53;13.80;99.90
8067;DHT22;4076;48.076;9.118;2022-10-16T17:50:18;13.70;99.90